sensor_id;sensor_type;location;lat;lon;timestamp;pressure;altitude;pressure_sealevel;temperature;humidity
53246;BME280;39569;51.090;-1.786;2024-02-16T00:00:24;99988.91;;;21.20;51.26
53246;BME280;39569;51.090;-1.786;2024-02-16T00:02:51;99993.00;;;21.22;50.71
53246;BME280;39569;51.090;-1.786;2024-02-16T00:05:18;99994.00;;;21.53;50.51
53246;BME280;39569;51.090;-1.786;2024-02-16T00:07:45;99983.81;;;21.75;49.79
53246;BME280;39569;51.090;-1.786;2024-02-16T00:10:12;99975.41;;;21.82;49.98
53246;BME280;39569;51.090;-1.786;2024-02-16T00:12:39;99978.59;;;21.69;49.79
53246;BME280;39569;51.090;-1.786;2024-02-16T00:15:09;99982.50;;;21.36;51.11
53246;BME280;39569;51.090;-1.786;2024-02-16T00:17:36;99984.56;;;21.19;50.87
53246;BME280;39569;51.090;-1.786;2024-02-16T00:20:03;99978.94;;;21.30;51.25
53246;BME280;39569;51.090;-1.786;2024-02-16T00:22:32;99986.94;;;21.52;50.69
53246;BME280;39569;51.090;-1.786;2024-02-16T00:24:59;99996.09;;;20.99;51.42
53246;BME280;39569;51.090;-1.786;2024-02-16T00:27:26;100001.28;;;21.42;50.56
53246;BME280;39569;51.090;-1.786;2024-02-16T00:29:52;100001.72;;;21.24;50.67
53246;BME280;39569;51.090;-1.786;2024-02-16T00:32:20;100007.06;;;21.51;50.36
53246;BME280;39569;51.090;-1.786;2024-02-16T00:34:49;100009.91;;;20.66;51.95
53246;BME280;39569;51.090;-1.786;2024-02-16T00:37:17;100002.94;;;20.75;51.56
53246;BME280;39569;51.090;-1.786;2024-02-16T00:39:44;99999.97;;;21.08;51.00
53246;BME280;39569;51.090;-1.786;2024-02-16T00:42:10;100009.78;;;20.51;51.53
53246;BME280;39569;51.090;-1.786;2024-02-16T00:44:37;100024.72;;;20.85;51.10
53246;BME280;39569;51.090;-1.786;2024-02-16T00:47:04;100025.19;;;20.77;51.44
53246;BME280;39569;51.090;-1.786;2024-02-16T00:49:32;100033.97;;;20.84;51.10
53246;BME280;39569;51.090;-1.786;2024-02-16T00:51:59;100026.97;;;20.62;51.69
53246;BME280;39569;51.090;-1.786;2024-02-16T00:54:26;100028.72;;;20.78;51.11
53246;BME280;39569;51.090;-1.786;2024-02-16T00:56:53;100027.94;;;21.09;50.45
53246;BME280;39569;51.090;-1.786;2024-02-16T00:59:20;100028.47;;;21.06;50.78
53246;BME280;39569;51.090;-1.786;2024-02-16T01:01:47;100028.34;;;20.64;51.06
53246;BME280;39569;51.090;-1.786;2024-02-16T01:04:14;100016.41;;;20.97;50.74
53246;BME280;39569;51.090;-1.786;2024-02-16T01:06:42;100033.03;;;21.00;50.81
53246;BME280;39569;51.090;-1.786;2024-02-16T01:09:09;100033.31;;;20.45;51.66
53246;BME280;39569;51.090;-1.786;2024-02-16T01:11:38;100033.97;;;20.58;51.44
53246;BME280;39569;51.090;-1.786;2024-02-16T01:14:06;100028.00;;;20.87;50.79
53246;BME280;39569;51.090;-1.786;2024-02-16T01:16:33;100025.88;;;20.94;50.50
53246;BME280;39569;51.090;-1.786;2024-02-16T01:19:01;100039.69;;;20.88;50.88
53246;BME280;39569;51.090;-1.786;2024-02-16T01:21:27;100048.50;;;20.03;52.74
53246;BME280;39569;51.090;-1.786;2024-02-16T01:23:55;100048.56;;;20.78;50.96
53246;BME280;39569;51.090;-1.786;2024-02-16T01:26:24;100046.47;;;20.59;50.85
53246;BME280;39569;51.090;-1.786;2024-02-16T01:28:51;100053.91;;;20.41;51.66
53246;BME280;39569;51.090;-1.786;2024-02-16T01:31:18;100057.94;;;20.39;51.73
53246;BME280;39569;51.090;-1.786;2024-02-16T01:33:44;100059.00;;;20.91;50.75
53246;BME280;39569;51.090;-1.786;2024-02-16T01:36:11;100043.53;;;21.23;49.87
53246;BME280;39569;51.090;-1.786;2024-02-16T01:38:38;100041.59;;;21.19;49.55
53246;BME280;39569;51.090;-1.786;2024-02-16T01:41:06;100057.75;;;21.35;49.68
53246;BME280;39569;51.090;-1.786;2024-02-16T01:43:34;100046.88;;;21.35;49.65
53246;BME280;39569;51.090;-1.786;2024-02-16T01:46:01;100047.47;;;21.42;49.25
53246;BME280;39569;51.090;-1.786;2024-02-16T01:48:28;100057.72;;;21.30;49.11
53246;BME280;39569;51.090;-1.786;2024-02-16T01:50:55;100061.06;;;21.42;49.36
53246;BME280;39569;51.090;-1.786;2024-02-16T01:53:23;100063.00;;;21.47;49.20
53246;BME280;39569;51.090;-1.786;2024-02-16T01:55:50;100076.00;;;21.40;49.18
53246;BME280;39569;51.090;-1.786;2024-02-16T01:58:18;100070.09;;;21.53;49.14
53246;BME280;39569;51.090;-1.786;2024-02-16T02:00:45;100073.59;;;21.43;48.95
53246;BME280;39569;51.090;-1.786;2024-02-16T02:03:12;100074.66;;;21.42;48.79
53246;BME280;39569;51.090;-1.786;2024-02-16T02:05:44;100080.13;;;21.47;48.48
53246;BME280;39569;51.090;-1.786;2024-02-16T02:08:12;100088.66;;;21.24;49.47
53246;BME280;39569;51.090;-1.786;2024-02-16T02:10:39;100106.63;;;21.30;49.39
53246;BME280;39569;51.090;-1.786;2024-02-16T02:13:05;100110.50;;;21.08;49.48
53246;BME280;39569;51.090;-1.786;2024-02-16T02:15:34;100107.88;;;20.91;50.15
53246;BME280;39569;51.090;-1.786;2024-02-16T02:18:00;100104.56;;;20.84;50.15
53246;BME280;39569;51.090;-1.786;2024-02-16T02:20:27;100116.22;;;20.85;50.31
53246;BME280;39569;51.090;-1.786;2024-02-16T02:22:55;100142.72;;;20.51;50.85
53246;BME280;39569;51.090;-1.786;2024-02-16T02:25:22;100161.59;;;20.03;52.28
53246;BME280;39569;51.090;-1.786;2024-02-16T02:27:48;100162.44;;;19.70;52.84
53246;BME280;39569;51.090;-1.786;2024-02-16T02:30:16;100160.38;;;19.77;52.76
53246;BME280;39569;51.090;-1.786;2024-02-16T02:32:43;100161.06;;;20.06;52.11
53246;BME280;39569;51.090;-1.786;2024-02-16T02:35:10;100164.47;;;19.80;52.83
53246;BME280;39569;51.090;-1.786;2024-02-16T02:37:39;100167.28;;;19.51;53.23
53246;BME280;39569;51.090;-1.786;2024-02-16T02:40:09;100161.41;;;20.09;51.84
53246;BME280;39569;51.090;-1.786;2024-02-16T02:42:36;100169.00;;;19.57;52.36
53246;BME280;39569;51.090;-1.786;2024-02-16T02:45:03;100172.03;;;19.94;51.94
53246;BME280;39569;51.090;-1.786;2024-02-16T02:47:31;100178.66;;;20.03;51.48
53246;BME280;39569;51.090;-1.786;2024-02-16T02:49:58;100182.97;;;19.66;52.48
53246;BME280;39569;51.090;-1.786;2024-02-16T02:52:25;100176.81;;;19.54;52.75
53246;BME280;39569;51.090;-1.786;2024-02-16T02:54:51;100176.88;;;19.59;52.64
53246;BME280;39569;51.090;-1.786;2024-02-16T02:57:19;100179.44;;;19.82;52.05
53246;BME280;39569;51.090;-1.786;2024-02-16T02:59:46;100186.38;;;20.11;51.43
53246;BME280;39569;51.090;-1.786;2024-02-16T03:02:13;100188.13;;;20.17;50.94
53246;BME280;39569;51.090;-1.786;2024-02-16T03:04:40;100184.38;;;20.40;50.62
53246;BME280;39569;51.090;-1.786;2024-02-16T03:07:07;100177.72;;;19.76;52.04
53246;BME280;39569;51.090;-1.786;2024-02-16T03:09:33;100170.50;;;20.20;51.09
53246;BME280;39569;51.090;-1.786;2024-02-16T03:12:00;100178.25;;;20.11;50.64
53246;BME280;39569;51.090;-1.786;2024-02-16T03:14:28;100178.06;;;20.34;50.61
53246;BME280;39569;51.090;-1.786;2024-02-16T03:16:55;100180.81;;;19.85;51.42
53246;BME280;39569;51.090;-1.786;2024-02-16T03:19:22;100178.81;;;20.30;50.48
53246;BME280;39569;51.090;-1.786;2024-02-16T03:21:48;100188.78;;;20.46;50.23
53246;BME280;39569;51.090;-1.786;2024-02-16T03:24:15;100189.19;;;20.00;51.09
53246;BME280;39569;51.090;-1.786;2024-02-16T03:26:43;100194.81;;;19.77;51.27
53246;BME280;39569;51.090;-1.786;2024-02-16T03:29:10;100192.00;;;19.55;51.98
53246;BME280;39569;51.090;-1.786;2024-02-16T03:31:38;100197.22;;;20.11;50.94
53246;BME280;39569;51.090;-1.786;2024-02-16T03:34:04;100205.31;;;19.90;51.05
53246;BME280;39569;51.090;-1.786;2024-02-16T03:36:31;100215.72;;;19.81;51.25
53246;BME280;39569;51.090;-1.786;2024-02-16T03:38:58;100211.13;;;19.65;51.41
53246;BME280;39569;51.090;-1.786;2024-02-16T03:41:24;100215.16;;;19.18;52.37
53246;BME280;39569;51.090;-1.786;2024-02-16T03:43:51;100227.06;;;19.78;51.11
53246;BME280;39569;51.090;-1.786;2024-02-16T03:46:19;100231.09;;;19.92;50.79
53246;BME280;39569;51.090;-1.786;2024-02-16T03:48:47;100242.09;;;20.35;49.56
53246;BME280;39569;51.090;-1.786;2024-02-16T03:51:14;100240.09;;;20.31;49.17
53246;BME280;39569;51.090;-1.786;2024-02-16T03:53:40;100245.72;;;20.24;49.32
53246;BME280;39569;51.090;-1.786;2024-02-16T03:56:07;100238.59;;;19.40;50.87
53246;BME280;39569;51.090;-1.786;2024-02-16T03:58:35;100257.56;;;19.12;52.05
53246;BME280;39569;51.090;-1.786;2024-02-16T04:01:02;100251.13;;;19.58;50.56
53246;BME280;39569;51.090;-1.786;2024-02-16T04:03:30;100263.47;;;18.98;52.08
53246;BME280;39569;51.090;-1.786;2024-02-16T04:05:58;100261.34;;;20.17;49.72
53246;BME280;39569;51.090;-1.786;2024-02-16T04:08:26;100263.59;;;20.09;49.62
53246;BME280;39569;51.090;-1.786;2024-02-16T04:10:53;100265.00;;;20.11;49.08
53246;BME280;39569;51.090;-1.786;2024-02-16T04:13:20;100273.97;;;19.79;49.39
53246;BME280;39569;51.090;-1.786;2024-02-16T04:15:46;100270.44;;;19.78;49.19
53246;BME280;39569;51.090;-1.786;2024-02-16T04:18:13;100265.59;;;19.64;49.58
53246;BME280;39569;51.090;-1.786;2024-02-16T04:20:40;100279.16;;;19.35;50.26
53246;BME280;39569;51.090;-1.786;2024-02-16T04:23:08;100280.50;;;19.66;49.83
53246;BME280;39569;51.090;-1.786;2024-02-16T04:25:35;100292.19;;;19.10;50.70
53246;BME280;39569;51.090;-1.786;2024-02-16T04:28:02;100293.44;;;19.47;49.76
53246;BME280;39569;51.090;-1.786;2024-02-16T04:30:28;100306.31;;;19.40;50.16
53246;BME280;39569;51.090;-1.786;2024-02-16T04:32:55;100308.03;;;19.58;49.56
53246;BME280;39569;51.090;-1.786;2024-02-16T04:35:22;100313.22;;;19.76;49.27
53246;BME280;39569;51.090;-1.786;2024-02-16T04:37:48;100319.19;;;19.33;50.41
53246;BME280;39569;51.090;-1.786;2024-02-16T04:40:17;100325.53;;;19.67;49.66
53246;BME280;39569;51.090;-1.786;2024-02-16T04:42:43;100334.06;;;19.19;49.81
53246;BME280;39569;51.090;-1.786;2024-02-16T04:45:11;100325.47;;;19.79;49.05
53246;BME280;39569;51.090;-1.786;2024-02-16T04:47:38;100326.16;;;19.57;49.17
53246;BME280;39569;51.090;-1.786;2024-02-16T04:50:06;100333.50;;;19.74;48.79
53246;BME280;39569;51.090;-1.786;2024-02-16T04:52:36;100344.03;;;19.87;48.27
53246;BME280;39569;51.090;-1.786;2024-02-16T04:55:03;100357.38;;;19.60;48.88
53246;BME280;39569;51.090;-1.786;2024-02-16T04:57:32;100345.72;;;19.59;48.78
53246;BME280;39569;51.090;-1.786;2024-02-16T04:59:59;100363.09;;;19.24;49.04
53246;BME280;39569;51.090;-1.786;2024-02-16T05:02:26;100374.09;;;19.17;49.50
53246;BME280;39569;51.090;-1.786;2024-02-16T05:04:52;100373.41;;;18.87;49.98
53246;BME280;39569;51.090;-1.786;2024-02-16T05:07:19;100374.72;;;18.73;50.67
53246;BME280;39569;51.090;-1.786;2024-02-16T05:09:46;100379.66;;;18.76;50.28
53246;BME280;39569;51.090;-1.786;2024-02-16T05:12:13;100395.75;;;17.65;53.24
53246;BME280;39569;51.090;-1.786;2024-02-16T05:14:41;100395.09;;;18.64;51.14
53246;BME280;39569;51.090;-1.786;2024-02-16T05:17:07;100403.63;;;17.67;52.83
53246;BME280;39569;51.090;-1.786;2024-02-16T05:19:34;100406.09;;;17.68;52.86
53246;BME280;39569;51.090;-1.786;2024-02-16T05:22:02;100411.69;;;17.85;52.13
53246;BME280;39569;51.090;-1.786;2024-02-16T05:24:29;100417.34;;;18.25;51.17
53246;BME280;39569;51.090;-1.786;2024-02-16T05:26:55;100419.06;;;18.60;50.36
53246;BME280;39569;51.090;-1.786;2024-02-16T05:29:22;100436.13;;;17.90;52.07
53246;BME280;39569;51.090;-1.786;2024-02-16T05:31:52;100437.56;;;17.93;52.29
53246;BME280;39569;51.090;-1.786;2024-02-16T05:34:19;100435.88;;;18.10;51.91
53246;BME280;39569;51.090;-1.786;2024-02-16T05:36:44;100438.63;;;17.92;51.61
53246;BME280;39569;51.090;-1.786;2024-02-16T05:39:11;100448.63;;;17.37;52.95
53246;BME280;39569;51.090;-1.786;2024-02-16T05:41:51;100450.16;;;17.69;51.55
53246;BME280;39569;51.090;-1.786;2024-02-16T05:44:18;100453.81;;;17.75;52.09
53246;BME280;39569;51.090;-1.786;2024-02-16T05:46:46;100457.94;;;17.41;52.19
53246;BME280;39569;51.090;-1.786;2024-02-16T05:49:14;100457.47;;;17.80;51.44
53246;BME280;39569;51.090;-1.786;2024-02-16T05:51:41;100467.66;;;17.24;52.74
53246;BME280;39569;51.090;-1.786;2024-02-16T05:54:25;100467.78;;;17.53;52.08
53246;BME280;39569;51.090;-1.786;2024-02-16T05:56:52;100460.91;;;17.33;52.22
53246;BME280;39569;51.090;-1.786;2024-02-16T05:59:18;100466.81;;;17.48;51.69
53246;BME280;39569;51.090;-1.786;2024-02-16T06:01:45;100471.25;;;17.90;50.75
53246;BME280;39569;51.090;-1.786;2024-02-16T06:04:14;100481.16;;;18.26;50.34
53246;BME280;39569;51.090;-1.786;2024-02-16T06:06:40;100488.25;;;17.79;50.70
53246;BME280;39569;51.090;-1.786;2024-02-16T06:09:07;100483.38;;;17.51;51.28
53246;BME280;39569;51.090;-1.786;2024-02-16T06:11:36;100484.69;;;17.42;51.81
53246;BME280;39569;51.090;-1.786;2024-02-16T06:14:03;100494.31;;;17.93;50.34
53246;BME280;39569;51.090;-1.786;2024-02-16T06:16:30;100494.19;;;17.88;50.20
53246;BME280;39569;51.090;-1.786;2024-02-16T06:18:56;100491.13;;;17.66;50.31
53246;BME280;39569;51.090;-1.786;2024-02-16T06:21:24;100506.69;;;18.00;49.60
53246;BME280;39569;51.090;-1.786;2024-02-16T06:23:51;100504.00;;;17.03;51.40
53246;BME280;39569;51.090;-1.786;2024-02-16T06:26:18;100504.06;;;16.97;51.86
53246;BME280;39569;51.090;-1.786;2024-02-16T06:28:45;100514.91;;;16.90;51.82
53246;BME280;39569;51.090;-1.786;2024-02-16T06:31:12;100516.91;;;17.01;51.09
53246;BME280;39569;51.090;-1.786;2024-02-16T06:33:40;100535.28;;;17.53;49.68
53246;BME280;39569;51.090;-1.786;2024-02-16T06:36:07;100537.50;;;17.38;50.11
53246;BME280;39569;51.090;-1.786;2024-02-16T06:38:36;100548.81;;;17.53;50.19
53246;BME280;39569;51.090;-1.786;2024-02-16T06:41:03;100553.69;;;17.38;50.05
53246;BME280;39569;51.090;-1.786;2024-02-16T06:43:30;100552.28;;;17.79;48.87
53246;BME280;39569;51.090;-1.786;2024-02-16T06:45:56;100556.31;;;17.27;50.47
53246;BME280;39569;51.090;-1.786;2024-02-16T06:48:23;100566.66;;;17.54;49.41
53246;BME280;39569;51.090;-1.786;2024-02-16T06:50:50;100578.41;;;18.03;48.46
53246;BME280;39569;51.090;-1.786;2024-02-16T06:53:17;100581.91;;;17.85;48.73
53246;BME280;39569;51.090;-1.786;2024-02-16T06:55:45;100584.31;;;18.59;47.62
53246;BME280;39569;51.090;-1.786;2024-02-16T06:58:12;100585.31;;;17.99;48.39
53246;BME280;39569;51.090;-1.786;2024-02-16T07:00:38;100585.16;;;17.94;48.28
53246;BME280;39569;51.090;-1.786;2024-02-16T07:03:07;100583.09;;;17.28;49.91
53246;BME280;39569;51.090;-1.786;2024-02-16T07:05:34;100591.13;;;17.96;48.46
53246;BME280;39569;51.090;-1.786;2024-02-16T07:08:01;100591.72;;;17.37;49.77
53246;BME280;39569;51.090;-1.786;2024-02-16T07:10:27;100597.84;;;17.75;48.96
53246;BME280;39569;51.090;-1.786;2024-02-16T07:12:55;100601.66;;;18.04;48.84
53246;BME280;39569;51.090;-1.786;2024-02-16T07:15:22;100608.28;;;17.90;48.64
53246;BME280;39569;51.090;-1.786;2024-02-16T07:17:49;100608.66;;;17.93;48.66
53246;BME280;39569;51.090;-1.786;2024-02-16T07:20:16;100618.75;;;17.80;49.29
53246;BME280;39569;51.090;-1.786;2024-02-16T07:22:43;100626.94;;;17.24;50.95
53246;BME280;39569;51.090;-1.786;2024-02-16T07:25:11;100622.38;;;17.24;50.92
53246;BME280;39569;51.090;-1.786;2024-02-16T07:27:38;100629.66;;;16.93;51.50
53246;BME280;39569;51.090;-1.786;2024-02-16T07:30:09;100639.56;;;17.30;51.85
53246;BME280;39569;51.090;-1.786;2024-02-16T07:32:36;100645.72;;;17.12;51.63
53246;BME280;39569;51.090;-1.786;2024-02-16T07:35:03;100644.53;;;17.82;49.98
53246;BME280;39569;51.090;-1.786;2024-02-16T07:37:30;100649.19;;;17.50;50.92
53246;BME280;39569;51.090;-1.786;2024-02-16T07:39:57;100656.50;;;17.43;50.67
53246;BME280;39569;51.090;-1.786;2024-02-16T07:42:24;100659.78;;;17.45;51.01
53246;BME280;39569;51.090;-1.786;2024-02-16T07:44:53;100667.28;;;17.68;50.42
53246;BME280;39569;51.090;-1.786;2024-02-16T07:47:21;100671.50;;;18.07;49.63
53246;BME280;39569;51.090;-1.786;2024-02-16T07:49:47;100677.44;;;17.48;51.81
53246;BME280;39569;51.090;-1.786;2024-02-16T07:52:14;100679.69;;;17.76;50.89
53246;BME280;39569;51.090;-1.786;2024-02-16T07:54:41;100694.34;;;18.29;49.77
53246;BME280;39569;51.090;-1.786;2024-02-16T07:57:08;100703.41;;;17.49;51.76
53246;BME280;39569;51.090;-1.786;2024-02-16T07:59:34;100693.56;;;18.22;49.90
53246;BME280;39569;51.090;-1.786;2024-02-16T08:02:01;100702.53;;;18.58;49.25
53246;BME280;39569;51.090;-1.786;2024-02-16T08:04:30;100713.09;;;18.78;49.62
53246;BME280;39569;51.090;-1.786;2024-02-16T08:06:57;100707.50;;;18.61;49.63
53246;BME280;39569;51.090;-1.786;2024-02-16T08:09:24;100713.03;;;18.12;51.27
53246;BME280;39569;51.090;-1.786;2024-02-16T08:11:50;100713.56;;;18.57;50.29
53246;BME280;39569;51.090;-1.786;2024-02-16T08:14:17;100717.19;;;19.70;47.93
53246;BME280;39569;51.090;-1.786;2024-02-16T08:16:44;100736.00;;;19.41;47.66
53246;BME280;39569;51.090;-1.786;2024-02-16T08:19:11;100734.63;;;19.62;47.73
53246;BME280;39569;51.090;-1.786;2024-02-16T08:21:40;100746.50;;;19.61;48.44
53246;BME280;39569;51.090;-1.786;2024-02-16T08:24:07;100761.09;;;18.71;49.39
53246;BME280;39569;51.090;-1.786;2024-02-16T08:26:34;100761.91;;;19.19;48.80
53246;BME280;39569;51.090;-1.786;2024-02-16T08:29:00;100768.72;;;18.74;49.84
53246;BME280;39569;51.090;-1.786;2024-02-16T08:31:27;100779.50;;;17.95;51.64
53246;BME280;39569;51.090;-1.786;2024-02-16T08:33:54;100787.06;;;18.11;51.10
53246;BME280;39569;51.090;-1.786;2024-02-16T08:36:21;100789.13;;;18.77;49.66
53246;BME280;39569;51.090;-1.786;2024-02-16T08:38:54;100793.69;;;19.12;48.96
53246;BME280;39569;51.090;-1.786;2024-02-16T08:41:22;100794.25;;;19.32;48.41
53246;BME280;39569;51.090;-1.786;2024-02-16T08:43:50;100795.13;;;19.26;48.32
53246;BME280;39569;51.090;-1.786;2024-02-16T08:46:16;100805.25;;;19.19;48.46
53246;BME280;39569;51.090;-1.786;2024-02-16T08:48:44;100808.88;;;18.95;49.26
53246;BME280;39569;51.090;-1.786;2024-02-16T08:51:11;100807.63;;;19.45;48.35
53246;BME280;39569;51.090;-1.786;2024-02-16T08:53:37;100808.72;;;20.20;46.89
53246;BME280;39569;51.090;-1.786;2024-02-16T08:56:09;100816.28;;;19.66;47.79
53246;BME280;39569;51.090;-1.786;2024-02-16T08:58:35;100825.78;;;18.30;51.66
53246;BME280;39569;51.090;-1.786;2024-02-16T09:01:02;100831.94;;;18.80;51.22
53246;BME280;39569;51.090;-1.786;2024-02-16T09:03:29;100837.03;;;19.24;50.08
53246;BME280;39569;51.090;-1.786;2024-02-16T09:05:58;100838.13;;;19.05;50.56
53246;BME280;39569;51.090;-1.786;2024-02-16T09:08:25;100843.22;;;18.95;51.45
53246;BME280;39569;51.090;-1.786;2024-02-16T09:10:54;100847.66;;;18.53;52.87
53246;BME280;39569;51.090;-1.786;2024-02-16T09:13:22;100842.66;;;19.58;50.47
53246;BME280;39569;51.090;-1.786;2024-02-16T09:15:49;100844.88;;;19.14;50.90
53246;BME280;39569;51.090;-1.786;2024-02-16T09:18:16;100859.09;;;19.45;50.63
53246;BME280;39569;51.090;-1.786;2024-02-16T09:20:43;100856.09;;;18.99;51.41
53246;BME280;39569;51.090;-1.786;2024-02-16T09:23:10;100857.72;;;19.96;49.35
53246;BME280;39569;51.090;-1.786;2024-02-16T09:25:37;100872.22;;;19.60;49.96
53246;BME280;39569;51.090;-1.786;2024-02-16T09:28:04;100878.69;;;19.59;50.17
53246;BME280;39569;51.090;-1.786;2024-02-16T09:30:33;100883.84;;;18.52;52.04
53246;BME280;39569;51.090;-1.786;2024-02-16T09:32:59;100898.66;;;18.18;53.31
53246;BME280;39569;51.090;-1.786;2024-02-16T09:35:26;100898.75;;;18.61;52.02
53246;BME280;39569;51.090;-1.786;2024-02-16T09:37:53;100905.03;;;18.30;53.04
53246;BME280;39569;51.090;-1.786;2024-02-16T09:40:19;100887.28;;;19.20;50.56
53246;BME280;39569;51.090;-1.786;2024-02-16T09:42:48;100901.09;;;20.37;48.30
53246;BME280;39569;51.090;-1.786;2024-02-16T09:45:16;100903.63;;;19.79;48.78
53246;BME280;39569;51.090;-1.786;2024-02-16T09:47:45;100908.06;;;19.26;50.24
53246;BME280;39569;51.090;-1.786;2024-02-16T09:50:13;100913.56;;;19.19;50.93
53246;BME280;39569;51.090;-1.786;2024-02-16T09:52:41;100913.28;;;20.05;49.01
53246;BME280;39569;51.090;-1.786;2024-02-16T09:55:11;100914.25;;;20.86;46.93
53246;BME280;39569;51.090;-1.786;2024-02-16T09:57:38;100911.63;;;21.66;45.64
53246;BME280;39569;51.090;-1.786;2024-02-16T10:00:06;100918.66;;;21.78;45.14
53246;BME280;39569;51.090;-1.786;2024-02-16T10:02:39;100926.81;;;19.93;47.96
53246;BME280;39569;51.090;-1.786;2024-02-16T10:05:14;100940.22;;;19.58;49.02
53246;BME280;39569;51.090;-1.786;2024-02-16T10:07:42;100944.88;;;20.11;48.36
53246;BME280;39569;51.090;-1.786;2024-02-16T10:10:20;100946.06;;;19.55;48.50
53246;BME280;39569;51.090;-1.786;2024-02-16T10:12:47;100947.00;;;20.09;47.34
53246;BME280;39569;51.090;-1.786;2024-02-16T10:15:19;100943.84;;;21.74;44.94
53246;BME280;39569;51.090;-1.786;2024-02-16T10:17:57;100950.59;;;21.83;45.20
53246;BME280;39569;51.090;-1.786;2024-02-16T10:20:25;100957.38;;;21.57;43.62
53246;BME280;39569;51.090;-1.786;2024-02-16T10:23:02;100962.16;;;20.69;45.92
53246;BME280;39569;51.090;-1.786;2024-02-16T10:25:29;100956.88;;;21.09;45.46
53246;BME280;39569;51.090;-1.786;2024-02-16T10:27:57;100966.22;;;21.64;44.23
53246;BME280;39569;51.090;-1.786;2024-02-16T10:30:28;100968.47;;;22.07;44.81
53246;BME280;39569;51.090;-1.786;2024-02-16T10:32:55;100974.78;;;22.24;44.10
53246;BME280;39569;51.090;-1.786;2024-02-16T10:35:25;100975.34;;;23.25;42.09
53246;BME280;39569;51.090;-1.786;2024-02-16T10:37:54;100967.38;;;23.19;42.90
53246;BME280;39569;51.090;-1.786;2024-02-16T10:40:22;100977.41;;;22.64;42.71
53246;BME280;39569;51.090;-1.786;2024-02-16T10:42:50;100974.69;;;21.91;44.07
53246;BME280;39569;51.090;-1.786;2024-02-16T10:45:17;100979.41;;;21.95;43.43
53246;BME280;39569;51.090;-1.786;2024-02-16T10:47:44;100987.19;;;21.52;43.55
53246;BME280;39569;51.090;-1.786;2024-02-16T10:50:12;100993.63;;;21.11;44.89
53246;BME280;39569;51.090;-1.786;2024-02-16T10:52:43;100985.81;;;21.78;44.28
53246;BME280;39569;51.090;-1.786;2024-02-16T10:55:12;100999.53;;;21.83;44.14
53246;BME280;39569;51.090;-1.786;2024-02-16T10:57:41;101002.94;;;21.15;43.77
53246;BME280;39569;51.090;-1.786;2024-02-16T11:00:09;101007.38;;;22.35;42.79
53246;BME280;39569;51.090;-1.786;2024-02-16T11:02:52;101004.84;;;21.89;42.64
53246;BME280;39569;51.090;-1.786;2024-02-16T11:05:31;101004.78;;;21.49;42.95
53246;BME280;39569;51.090;-1.786;2024-02-16T11:08:05;101003.88;;;23.99;40.05
53246;BME280;39569;51.090;-1.786;2024-02-16T11:10:31;100994.63;;;27.36;34.85
53246;BME280;39569;51.090;-1.786;2024-02-16T11:13:02;100990.25;;;29.15;30.28
53246;BME280;39569;51.090;-1.786;2024-02-16T11:15:31;101004.25;;;29.42;30.11
53246;BME280;39569;51.090;-1.786;2024-02-16T11:18:00;101002.59;;;29.70;29.45
53246;BME280;39569;51.090;-1.786;2024-02-16T11:20:27;101008.72;;;30.83;28.07
53246;BME280;39569;51.090;-1.786;2024-02-16T11:23:06;101005.03;;;29.48;28.98
53246;BME280;39569;51.090;-1.786;2024-02-16T11:25:36;101012.28;;;29.15;29.89
53246;BME280;39569;51.090;-1.786;2024-02-16T11:28:03;101002.13;;;30.24;29.45
53246;BME280;39569;51.090;-1.786;2024-02-16T11:30:32;101011.34;;;30.38;27.51
53246;BME280;39569;51.090;-1.786;2024-02-16T11:33:00;101014.84;;;29.82;27.32
53246;BME280;39569;51.090;-1.786;2024-02-16T11:35:27;101011.53;;;31.56;27.03
53246;BME280;39569;51.090;-1.786;2024-02-16T11:37:55;101013.97;;;32.34;26.74
53246;BME280;39569;51.090;-1.786;2024-02-16T11:40:23;101018.88;;;29.90;28.26
53246;BME280;39569;51.090;-1.786;2024-02-16T11:42:57;101021.47;;;31.12;26.88
53246;BME280;39569;51.090;-1.786;2024-02-16T11:45:24;101030.03;;;27.07;31.48
53246;BME280;39569;51.090;-1.786;2024-02-16T11:48:02;101042.31;;;24.94;34.53
53246;BME280;39569;51.090;-1.786;2024-02-16T11:50:28;101045.19;;;22.93;37.39
53246;BME280;39569;51.090;-1.786;2024-02-16T11:52:56;101050.56;;;23.21;37.73
53246;BME280;39569;51.090;-1.786;2024-02-16T11:55:25;101054.97;;;23.27;37.75
53246;BME280;39569;51.090;-1.786;2024-02-16T11:57:51;101052.97;;;22.00;38.71
53246;BME280;39569;51.090;-1.786;2024-02-16T12:00:20;101054.59;;;23.19;38.67
53246;BME280;39569;51.090;-1.786;2024-02-16T12:02:47;101055.31;;;23.14;38.70
53246;BME280;39569;51.090;-1.786;2024-02-16T12:05:14;101058.53;;;22.62;38.78
53246;BME280;39569;51.090;-1.786;2024-02-16T12:07:40;101059.84;;;22.59;38.73
53246;BME280;39569;51.090;-1.786;2024-02-16T12:10:08;101061.63;;;21.63;40.35
53246;BME280;39569;51.090;-1.786;2024-02-16T12:12:37;101067.59;;;21.99;39.61
53246;BME280;39569;51.090;-1.786;2024-02-16T12:15:05;101048.97;;;23.09;37.94
53246;BME280;39569;51.090;-1.786;2024-02-16T12:17:33;101050.19;;;25.22;33.29
53246;BME280;39569;51.090;-1.786;2024-02-16T12:20:00;101039.09;;;26.78;30.94
53246;BME280;39569;51.090;-1.786;2024-02-16T12:22:27;101035.53;;;25.85;31.75
53246;BME280;39569;51.090;-1.786;2024-02-16T12:24:54;101041.97;;;23.68;35.18
53246;BME280;39569;51.090;-1.786;2024-02-16T12:27:21;101044.56;;;22.30;37.10
53246;BME280;39569;51.090;-1.786;2024-02-16T12:29:50;101050.00;;;21.90;37.72
53246;BME280;39569;51.090;-1.786;2024-02-16T12:32:18;101047.47;;;21.26;37.99
53246;BME280;39569;51.090;-1.786;2024-02-16T12:34:45;101048.19;;;21.10;38.97
53246;BME280;39569;51.090;-1.786;2024-02-16T12:37:11;101061.56;;;20.40;39.81
53246;BME280;39569;51.090;-1.786;2024-02-16T12:39:38;101055.81;;;20.48;40.06
53246;BME280;39569;51.090;-1.786;2024-02-16T12:42:06;101068.31;;;20.20;40.78